Fayette, OH (43521)

4:06 PM EDT on October 31, 2014 (GMT -0400)
KD8WSL | Change Station
CLOSE
Current Station
Personal Weather Station
Location: Morenci, MI
Elevation: 784 ft
Nearby Weather Stations

Elev 784 ft 41.74 °N, 84.23 °W | Updated 3 minutes ago

Rain
Rain
40.4 °F
Feels Like 40 °F
N
3.0
Wind Variable Wind from NW
Gusts 12.0 mph

Today
High -- | Low -- °F
--% Chance of Precip.
Yesterday
High -- | Low -- °F
Precip. -- in
8:08 AM 6:33 PM
First Quarter, 58% visible
Pressure 29.90 in
Visibility 5.0 miles
Clouds Mostly Cloudy 1700 ft
Mostly Cloudy 2200 ft
Overcast 2700 ft
Windchill 40 °F
Dew Point 37 °F
Humidity 86%
Rainfall 0.11 in
Snow Depth Not available.
UV 0.0 out of 12
Pollen .10 out of 12
Air Quality Not available.
Flu Activity Not available.
METAR KUSE 311955Z AUTO 35012G25KT 310V010 5SM -RA BKN017 BKN022 OVC027 05/03 A2990 RMK AO2

More Conditions Fewer Conditions

Pressure 29.90 in
Visibility 5.0 miles
Clouds Mostly Cloudy 1700 ft
Mostly Cloudy 2200 ft
Overcast 2700 ft
Windchill 40 °F
Dew Point 37 °F
Humidity 86%
Rainfall 0.11 in
Snow Depth Not available.
UV 0.0 out of 12
Pollen .10 out of 12
Air Quality Not available.
Flu Activity Not available.
METAR KUSE 311955Z AUTO 35012G25KT 310V010 5SM -RA BKN017 BKN022 OVC027 05/03 A2990 RMK AO2

More Conditions Fewer Conditions

10-Day Weather Forecast

Almanac

Astronomy

Oct. 31, 2014 Rise Set
Actual Time
Civil Twilight
Nautical Twilight
Astronomical Twilight
Moon
Length of Visible Light
Length of Day
Tomorrow will be .
, % of the Moon is Illuminated

Today's Extremes

State Highs State Lows

Community

WunderPhotos

Upload Photos

1,766,717 photos uploaded!

WunderBlogs® & News

Nearby

Air Quality

  Air Quality AQ Index Pollutant
Not available.

Snow Depth

Station Depth Elevation

Earthquake Activity

City Distance Mag. Time & Date
Minimum magnitude displayed is 2.5.

Coastal Water Temperatures

Place Temperature

Nearby Weather Stations